Chronik & Geschichte

Boeing Stearman am Flugplatz Konstanz

Mit seiner 107-jährigen Geschichte ist Konstanz der älteste Verkehrslandeplatz Deutschlands. Lesen Sie unsere Festschrift zum 100-jährigen Platzjubiläum oder entdecken Sie die ausführliche Flugplatzchronik auf der Website der Initiative PRO Flugplatz Konstanz.

Live am Platz

Die Bilder unserer Webcams werden alle 5 Minuten aktualisiert.

Sonnenaufgang:

03:46 UTC / 05:46 Lokal

Sonnenuntergang:

19:13 UTC / 21:13 Lokal

METAR (21.07.2018 01:20 UTC):

EDNY 210120Z AUTO 11006KT 9999 // BKN092/// OVC120/// 19/14 Q1013
VFR

TAF (20.07.2018 23:00 UTC):

TAF EDNY 202300Z 2100/2124 VRB03KT CAVOK PROB30 TEMPO 2103/2107 RA SCT010 BKN050CB BECMG 2107/2109 24006KT PROB30 TEMPO 2113/2116 29015G25KT TSRA SCT030 BKN040CB BECMG 2117/2119 VRB03KT

Alle Angaben unverbindlich und ohne Gewähr. Zeiten genähert.

Für den Verkehrslandeplatz Konstanz werden keine offiziellen Wetterinformationen herausgegeben. Daher werden zur Orientierung Daten des nahegelegenen Flughafens Friedrichshafen dargestellt.